This is the latest recevied weather packets stored in our database for station/object KD7CIH. If no packets are shown the sender has not sent any weather packets the latest 10 day(s).
| Time | Temp. | Humidity | Pressure | Rain* | Wind** | Luminosity | Snow |
|---|---|---|---|---|---|---|---|
| 1787489952 | 16.11° C | 67% | 1019.5 hPa | 0 mm | - | - | - |
| 1787489654 | 16.11° C | 68% | 1019.3 hPa | 0 mm | - | - | - |
| 1787489226 | 15.56° C | 69% | 1019 hPa | 0 mm | - | - | - |
| 1787488925 | 15.56° C | 69% | 1018.7 hPa | 0 mm | - | - | - |
| 1787488626 | 15.56° C | 70% | 1018.8 hPa | 0 mm | - | - | - |
| 1787488327 | 15.56° C | 71% | 1019 hPa | 0 mm | - | - | - |
| 1787488154 | 15.56° C | 70% | 1019.2 hPa | 0 mm | - | - | - |
| 1787487725 | 16.11° C | 69% | 1019.2 hPa | 0 mm | - | - | - |
| 1787487427 | 16.67° C | 64% | 1019.3 hPa | 0 mm | - | - | - |
| 1787487253 | 17.78° C | 57% | 1018.9 hPa | 0 mm | - | - | - |
| 1787486826 | 17.78° C | 58% | 1018.8 hPa | 0 mm | - | - | - |
| 1787486653 | 17.78° C | 59% | 1019.3 hPa | 0 mm | - | - | - |
| 1787486225 | 17.78° C | 59% | 1019.6 hPa | 0 mm | - | - | - |
| 1787485929 | 17.78° C | 59% | 1020 hPa | 0 mm | - | - | - |
| 1787485622 | 17.78° C | 59% | 1020 hPa | 0 mm | - | - | - |
| 1787485318 | 17.22° C | 60% | 1020.1 hPa | 0 mm | - | - | - |
| 1787485015 | 17.22° C | 62% | 1020.4 hPa | 0 mm | - | - | - |
| 1787484841 | 17.22° C | 60% | 1020.6 hPa | 0 mm | - | - | - |
| 1787484545 | 17.22° C | 62% | 1020.9 hPa | 0 mm | - | - | - |
| 1787484114 | 17.22° C | 62% | 1021.1 hPa | 0 mm | - | - | - |
| 1787483812 | 17.22° C | 61% | 1021 hPa | 0 mm | - | - | - |
| 1787483513 | 17.22° C | 62% | 1021.1 hPa | 0 mm | - | - | - |
| 1787483214 | 17.22° C | 62% | 1021 hPa | 0 mm | - | - | - |
| 1787482910 | 17.22° C | 62% | 1020.7 hPa | 0 mm | - | - | - |
| 1787482737 | 17.22° C | 63% | 1020.6 hPa | 0 mm | - | - | - |
* Rain latest hour (hover to see other rain measurements)
** Current wind speed in m/s (hover to see current wind gust speed)